Lakewood, MA

5:18 AM EDT on July 26, 2017 (GMT -0400)
| | Change Station
Active Advisory: Special Statement

Elev -9999 ft 0.00 °N, 0.00 °E | Updated 0 second ago

Overcast
Overcast
°F
Feels Like °F
N
Wind Variable Wind from North
Gusts mph

Today
High -- | Low -- °F
--% Chance of Precip.
Yesterday
High -- | Low -- °F
Precip. -- in
Pressure 30.21 in
Visibility 0.2 miles
Clouds
Dew Point Not available.
Humidity Not available.
Rainfall --
Snow Depth Not available.
5:39 AM 8:18 PM
Waxing Crescent, 12% visible
METAR KPSF 260854Z AUTO 07003KT 1/4SM FG VV001 12/12 A3025 RMK AO2 SLP228 T01220117 55000
Pressure 30.21 in
Visibility 0.2 miles
Clouds
Dew Point Not available.
Humidity Not available.
Rainfall --
Snow Depth Not available.
5:39 AM 8:18 PM
Waxing Crescent, 12% visible
METAR KPSF 260854Z AUTO 07003KT 1/4SM FG VV001 12/12 A3025 RMK AO2 SLP228 T01220117 55000

Get Your Daily Forecast Email!

Thanks for signing up!

Be on the lookout for a verification email in your inbox.

You'll start receiving severe weather alerts in your inbox..

×

10-Day Weather Forecast

Almanac

Astronomy

Jul. 26, 2017 Rise Set
Actual Time
Civil Twilight
Nautical Twilight
Astronomical Twilight
Moon
Length of Visible Light
Length of Day
Tomorrow will be .
, % of the Moon is Illuminated

Today's Extremes

State Highs State Lows

Community

WunderPhotos

Category 6

Welcome to Category 6. This is the collective home for Weather Underground's featured writeups by Dr. Jeff Masters (right), Bob Henson (left), Chris Burt, and other regular contributors.

Nearby

Air Quality

  Air Quality AQ Index Pollutant
Not available.

Snow Depth

Station Depth Elevation

Earthquake Activity

City Distance Mag. Time & Date
Minimum magnitude displayed is 2.5.

Coastal Water Temperatures

Place Temperature

Stations

Nearby Weather Stations

Station Location Temp. Windchill Dew Point Humidity Wind Precip. Elev Updated Type
                   

Watches & Warnings

Special Statement
Issued: 5:15 AM EDT Jul. 26, 2017 – National Weather Service

... Patchy dense fog for the morning commute...
patchy dense fog is expected with visibilities reduced to less
than one mile through this early Wednesday morning. Motorists are
urged to watch for sudden changes in visibilities and adjust
driving speeds accordingly. Leave plenty of room between
neighboring motorists, use low beam headlights and allow for some
extra time to reach your destination safely. Conditions will
improve toward 8 am.


515 am EDT Wed Jul 26 2017

... Patchy dense fog for the morning commute...
patchy dense fog is expected with visibilities reduced to less
than one mile through this early Wednesday morning. Motorists are
urged to watch for sudden changes in visibilities and adjust
driving speeds accordingly. Leave plenty of room between
neighboring motorists, use low beam headlights and allow for some
extra time to reach your destination safely. Conditions will
improve toward 8 am.